createdAt,value
2022-11-29T00:00:20.896Z,26.05
2022-11-29T00:01:42.171Z,26.83
2022-11-29T00:03:03.301Z,26.45
2022-11-29T00:04:24.700Z,23.98
2022-11-29T00:05:45.769Z,18.63
2022-11-29T00:07:07.090Z,17.50
2022-11-29T00:08:28.232Z,14.25
2022-11-29T00:09:49.451Z,30.85
2022-11-29T00:11:39.608Z,16.50
2022-11-29T00:13:00.822Z,17.45
2022-11-29T00:14:23.391Z,11.50
2022-11-29T00:15:44.509Z,10.38
2022-11-29T00:17:06.217Z,10.60
2022-11-29T00:18:28.125Z,12.75
2022-11-29T00:19:49.376Z,12.98
2022-11-29T00:21:10.561Z,14.32
2022-11-29T00:22:31.258Z,14.88
2022-11-29T00:23:52.477Z,15.57
2022-11-29T00:25:13.534Z,14.70
2022-11-29T00:26:34.907Z,11.52
2022-11-29T00:27:56.002Z,13.00
2022-11-29T00:29:17.510Z,8.90
2022-11-29T00:30:38.731Z,11.13
2022-11-29T00:32:00.257Z,12.15
2022-11-29T00:33:21.081Z,10.32
2022-11-29T00:34:42.493Z,7.22
2022-11-29T00:36:03.831Z,9.07
2022-11-29T00:37:25.162Z,10.25
2022-11-29T00:38:46.607Z,11.25
2022-11-29T00:40:08.371Z,12.80
2022-11-29T00:41:29.172Z,11.90
2022-11-29T00:42:50.325Z,13.52
2022-11-29T00:44:16.807Z,27.70
2022-11-29T00:45:40.658Z,186.98
2022-11-29T00:47:01.969Z,109.05
2022-11-29T00:48:23.531Z,59.95
2022-11-29T00:49:44.639Z,305.83
2022-11-29T00:51:06.547Z,182.55
2022-11-29T00:52:27.255Z,126.80
2022-11-29T00:53:48.263Z,58.92
2022-11-29T00:55:09.612Z,38.88
2022-11-29T00:56:30.707Z,21.92
2022-11-29T00:57:51.832Z,22.00
2022-11-29T00:59:12.960Z,40.70
2022-11-29T01:00:34.082Z,23.60
2022-11-29T01:01:55.157Z,20.67
2022-11-29T01:03:17.085Z,49.80
2022-11-29T01:04:37.927Z,140.70
2022-11-29T01:06:08.437Z,134.88
2022-11-29T01:07:29.410Z,135.45
2022-11-29T01:08:50.789Z,97.35
2022-11-29T01:10:11.785Z,68.82
2022-11-29T01:11:33.477Z,45.17
2022-11-29T01:12:55.366Z,42.45
2022-11-29T01:14:16.403Z,37.20
2022-11-29T01:15:37.643Z,35.53
2022-11-29T01:16:58.739Z,27.02
2022-11-29T01:18:20.000Z,26.30
2022-11-29T01:19:44.114Z,25.23
2022-11-29T01:21:10.514Z,21.30
2022-11-29T01:22:31.348Z,24.98
2022-11-29T01:23:54.225Z,23.73
2022-11-29T01:25:15.525Z,20.00
2022-11-29T01:26:36.359Z,21.45
2022-11-29T01:27:57.499Z,18.40
2022-11-29T01:29:18.967Z,16.20
2022-11-29T01:30:40.132Z,19.52
2022-11-29T01:32:01.229Z,19.45
2022-11-29T01:33:22.720Z,53.10
2022-11-29T01:34:44.175Z,168.18
2022-11-29T01:36:07.288Z,178.55
2022-11-29T01:37:31.484Z,160.77
2022-11-29T01:38:53.105Z,182.38
2022-11-29T01:40:14.440Z,207.80
2022-11-29T01:41:37.265Z,130.68
2022-11-29T01:42:58.389Z,98.30
2022-11-29T01:44:19.456Z,49.15
2022-11-29T01:45:40.963Z,46.28
2022-11-29T01:47:01.879Z,24.33
2022-11-29T01:48:27.718Z,19.23
2022-11-29T01:49:50.110Z,21.25
2022-11-29T01:51:11.606Z,24.95
2022-11-29T01:52:33.177Z,26.23
2022-11-29T01:53:57.375Z,30.35
2022-11-29T01:55:19.110Z,24.00
2022-11-29T01:56:42.905Z,25.33
2022-11-29T01:58:06.397Z,25.90
2022-11-29T01:59:29.694Z,25.50
2022-11-29T02:00:50.810Z,21.23
2022-11-29T02:02:22.305Z,21.38
2022-11-29T02:03:43.110Z,17.90
2022-11-29T02:05:05.445Z,16.35
2022-11-29T02:06:28.413Z,15.82
2022-11-29T02:07:52.552Z,15.73
2022-11-29T02:09:22.762Z,15.95
2022-11-29T02:11:07.707Z,21.25
2022-11-29T02:12:53.505Z,45.30
2022-11-29T02:14:26.703Z,29.65
2022-11-29T02:16:03.826Z,33.67
2022-11-29T02:17:36.739Z,28.08
2022-11-29T02:19:18.147Z,52.80
2022-11-29T02:20:47.657Z,38.85
2022-11-29T02:22:31.978Z,14.57
2022-11-29T02:24:36.102Z,17.13
2022-11-29T02:26:15.628Z,13.05
2022-11-29T02:27:45.719Z,9.15
2022-11-29T02:29:23.211Z,8.00
2022-11-29T02:30:50.339Z,7.40
2022-11-29T02:32:59.590Z,7.07
2022-11-29T02:34:53.640Z,10.23
2022-11-29T02:36:23.507Z,13.38
2022-11-29T02:39:05.086Z,9.80
2022-11-29T02:40:50.801Z,9.82
2022-11-29T02:42:54.392Z,15.20
2022-11-29T02:44:45.717Z,8.00
2022-11-29T02:46:30.040Z,13.95
2022-11-29T02:48:02.773Z,26.13
2022-11-29T02:49:38.721Z,28.25
2022-11-29T02:51:23.509Z,22.42
2022-11-29T02:52:54.975Z,23.33
2022-11-29T02:54:50.301Z,19.73
2022-11-29T02:56:37.485Z,19.05
2022-11-29T02:58:09.680Z,17.92
2022-11-29T02:59:48.710Z,28.30
2022-11-29T03:01:16.649Z,118.43
2022-11-29T03:02:57.047Z,49.75
2022-11-29T03:04:45.740Z,33.25
2022-11-29T03:06:21.914Z,28.08
2022-11-29T03:08:01.047Z,44.58
2022-11-29T03:09:40.587Z,28.73
2022-11-29T03:11:38.149Z,23.55
2022-11-29T03:13:00.315Z,19.40
2022-11-29T03:14:39.917Z,17.50
2022-11-29T03:16:17.321Z,34.40
2022-11-29T03:18:06.637Z,34.08
2022-11-29T03:19:55.296Z,26.63
2022-11-29T03:21:45.944Z,31.85
2022-11-29T03:23:28.330Z,35.40
2022-11-29T03:25:17.038Z,37.10
2022-11-29T03:27:01.062Z,38.70
2022-11-29T03:28:24.735Z,35.25
2022-11-29T03:29:58.101Z,35.10
2022-11-29T03:31:30.037Z,36.72
2022-11-29T03:33:05.081Z,35.97
2022-11-29T03:34:55.694Z,35.92
2022-11-29T03:36:36.686Z,36.28
2022-11-29T03:38:35.308Z,50.10
2022-11-29T03:40:07.140Z,54.20
2022-11-29T03:41:40.921Z,46.03
2022-11-29T03:43:01.807Z,50.58
2022-11-29T03:44:28.069Z,42.83
2022-11-29T03:46:04.627Z,32.63
2022-11-29T03:47:36.101Z,69.18
2022-11-29T03:49:03.616Z,39.95
2022-11-29T03:50:57.552Z,44.05
2022-11-29T03:52:47.767Z,24.30
2022-11-29T03:54:13.135Z,26.38
2022-11-29T03:55:50.501Z,32.40
2022-11-29T03:57:17.732Z,38.65
2022-11-29T03:58:56.934Z,34.65
2022-11-29T04:00:18.942Z,30.45
2022-11-29T04:02:10.768Z,23.40
2022-11-29T04:03:53.313Z,83.10
2022-11-29T04:05:29.732Z,215.70
2022-11-29T04:07:12.237Z,48.70
2022-11-29T04:09:04.315Z,17.38
2022-11-29T04:10:39.609Z,44.08
2022-11-29T04:12:48.922Z,19.10
2022-11-29T04:14:26.264Z,14.05
2022-11-29T04:16:07.549Z,14.43
2022-11-29T04:17:45.163Z,16.13
2022-11-29T04:19:22.207Z,12.75
2022-11-29T04:21:01.755Z,14.27
2022-11-29T04:22:54.986Z,9.27
2022-11-29T04:24:19.198Z,34.08
2022-11-29T04:26:01.138Z,14.30
2022-11-29T04:27:48.698Z,10.18
2022-11-29T04:29:25.202Z,7.07
2022-11-29T04:31:24.140Z,6.38
2022-11-29T04:33:18.694Z,6.93
2022-11-29T04:35:17.088Z,26.10
2022-11-29T04:37:14.123Z,25.70
2022-11-29T04:38:48.809Z,27.10
2022-11-29T04:40:18.465Z,19.92
2022-11-29T04:42:24.785Z,22.17
2022-11-29T04:44:07.626Z,20.13
2022-11-29T04:46:02.452Z,22.60
2022-11-29T04:47:33.801Z,23.20
2022-11-29T04:49:35.301Z,22.35
2022-11-29T04:51:02.197Z,26.42
2022-11-29T04:52:55.509Z,13.20
2022-11-29T04:54:19.271Z,13.85
2022-11-29T04:55:53.753Z,16.15
2022-11-29T04:57:32.806Z,16.00
2022-11-29T04:59:03.611Z,13.97
2022-11-29T05:00:25.550Z,44.70
2022-11-29T05:02:11.309Z,63.17
2022-11-29T05:03:42.259Z,43.38
2022-11-29T05:05:24.530Z,23.35
2022-11-29T05:07:03.471Z,25.25
2022-11-29T05:08:38.590Z,23.73
2022-11-29T05:10:14.884Z,23.25
2022-11-29T05:11:58.746Z,33.25
2022-11-29T05:13:44.484Z,37.30
2022-11-29T05:15:14.877Z,65.28
2022-11-29T05:16:35.991Z,57.45
2022-11-29T05:18:17.314Z,49.55
2022-11-29T05:19:53.672Z,38.83
2022-11-29T05:21:24.996Z,38.40
2022-11-29T05:23:04.675Z,39.63
2022-11-29T05:24:58.959Z,40.53
2022-11-29T05:26:29.520Z,49.38
2022-11-29T05:28:25.929Z,54.97
2022-11-29T05:30:02.011Z,64.55
2022-11-29T05:31:50.362Z,67.97
2022-11-29T05:33:24.748Z,74.82
2022-11-29T05:34:57.935Z,96.22
2022-11-29T05:36:40.086Z,93.63
2022-11-29T05:38:19.604Z,95.38
2022-11-29T05:39:51.426Z,111.50
2022-11-29T05:41:18.263Z,123.00
2022-11-29T05:43:07.279Z,112.85
2022-11-29T05:44:37.989Z,84.30
2022-11-29T05:46:12.821Z,80.40
2022-11-29T05:47:46.908Z,76.30
2022-11-29T05:49:27.556Z,80.88
2022-11-29T05:50:58.377Z,82.72
2022-11-29T05:52:55.559Z,84.47
2022-11-29T05:54:33.843Z,85.05
2022-11-29T05:56:03.990Z,91.82
2022-11-29T05:57:40.320Z,87.05
2022-11-29T05:59:17.202Z,94.25
2022-11-29T06:00:49.814Z,109.32
2022-11-29T06:02:26.158Z,120.43
2022-11-29T06:04:15.146Z,99.00
2022-11-29T06:05:57.076Z,91.10
2022-11-29T06:07:26.128Z,91.10
2022-11-29T06:08:56.966Z,108.30
2022-11-29T06:10:20.006Z,109.35
2022-11-29T06:11:55.007Z,135.63
2022-11-29T06:13:31.538Z,126.47
2022-11-29T06:14:57.097Z,118.15
2022-11-29T06:16:57.203Z,117.72
2022-11-29T06:18:27.433Z,119.25
2022-11-29T06:20:27.651Z,127.18
2022-11-29T06:22:05.797Z,122.65
2022-11-29T06:23:36.648Z,103.97
2022-11-29T06:25:23.633Z,95.72
2022-11-29T06:26:44.985Z,97.63
2022-11-29T06:28:32.631Z,118.57
2022-11-29T06:30:15.026Z,127.13
2022-11-29T06:31:43.488Z,142.93
2022-11-29T06:33:28.949Z,135.85
2022-11-29T06:35:09.562Z,135.52
2022-11-29T06:37:08.217Z,143.52
2022-11-29T06:38:33.184Z,133.90
2022-11-29T06:39:57.591Z,135.27
2022-11-29T06:41:21.550Z,136.60
2022-11-29T06:42:43.182Z,147.43
2022-11-29T06:44:05.591Z,154.10
2022-11-29T06:45:27.073Z,160.38
2022-11-29T06:47:24.149Z,179.93
2022-11-29T06:48:56.568Z,157.40
2022-11-29T06:50:32.860Z,168.85
2022-11-29T06:52:18.476Z,164.10
2022-11-29T06:53:54.332Z,147.00
2022-11-29T06:55:22.643Z,110.43
2022-11-29T06:56:55.772Z,165.98
2022-11-29T06:58:34.466Z,156.95
2022-11-29T07:00:12.910Z,135.73
2022-11-29T07:01:59.722Z,124.00
2022-11-29T07:03:59.137Z,100.88
2022-11-29T07:05:30.550Z,97.65
2022-11-29T07:06:51.710Z,90.82
2022-11-29T07:08:17.332Z,87.97
2022-11-29T07:09:38.497Z,92.50
2022-11-29T07:11:00.601Z,91.13
2022-11-29T07:12:21.800Z,90.15
2022-11-29T07:13:42.778Z,80.38
2022-11-29T07:15:05.510Z,77.00
2022-11-29T07:16:34.024Z,64.90
2022-11-29T07:18:13.442Z,70.40
2022-11-29T07:19:50.905Z,77.72
2022-11-29T07:21:36.734Z,75.15
2022-11-29T07:23:10.977Z,91.82
2022-11-29T07:24:49.846Z,93.75
2022-11-29T07:26:38.487Z,118.60
2022-11-29T07:28:17.375Z,116.18
2022-11-29T07:30:14.173Z,124.18
2022-11-29T07:32:03.543Z,124.72
2022-11-29T07:33:54.792Z,126.25
2022-11-29T07:35:23.087Z,132.27
2022-11-29T07:37:00.538Z,128.50
2022-11-29T07:38:58.311Z,134.63
2022-11-29T07:40:49.825Z,137.15
2022-11-29T07:42:30.426Z,149.43
2022-11-29T07:44:30.727Z,171.05
2022-11-29T07:45:51.810Z,187.80
2022-11-29T07:47:15.597Z,124.20
2022-11-29T07:48:36.761Z,99.68
2022-11-29T07:49:57.857Z,106.15
2022-11-29T07:51:19.267Z,96.65
2022-11-29T07:52:40.477Z,90.50
2022-11-29T07:54:01.718Z,67.07
2022-11-29T07:55:26.030Z,55.80
2022-11-29T07:56:47.510Z,40.90
2022-11-29T07:58:12.830Z,33.38
2022-11-29T07:59:34.035Z,31.98
2022-11-29T08:00:54.931Z,27.58
2022-11-29T08:02:26.822Z,26.25
2022-11-29T08:03:48.193Z,35.13
2022-11-29T08:05:09.881Z,33.83
2022-11-29T08:06:31.121Z,27.80
2022-11-29T08:07:53.647Z,32.47
2022-11-29T08:09:14.849Z,52.13
2022-11-29T08:10:36.101Z,50.30
2022-11-29T08:11:57.169Z,52.78
2022-11-29T08:13:20.824Z,125.72
2022-11-29T08:14:41.916Z,51.67
2022-11-29T08:16:03.517Z,130.68
2022-11-29T08:17:25.882Z,108.95
2022-11-29T08:18:46.828Z,44.38
2022-11-29T08:20:09.726Z,91.70
2022-11-29T08:21:30.774Z,66.00
2022-11-29T08:22:57.107Z,74.28
2022-11-29T08:24:18.159Z,79.30
2022-11-29T08:25:39.837Z,59.75
2022-11-29T08:27:00.975Z,54.33
2022-11-29T08:28:22.096Z,59.88
2022-11-29T08:29:43.392Z,67.32
2022-11-29T08:31:06.930Z,64.85
2022-11-29T08:32:28.457Z,85.32
2022-11-29T08:33:49.472Z,91.90
2022-11-29T08:35:10.612Z,117.57
2022-11-29T08:36:31.880Z,136.80
2022-11-29T08:37:54.125Z,123.10
2022-11-29T08:39:15.219Z,117.28
2022-11-29T08:40:36.521Z,100.70
2022-11-29T08:41:57.448Z,97.78
2022-11-29T08:43:18.676Z,100.07
2022-11-29T08:44:39.950Z,102.35
2022-11-29T08:46:01.429Z,105.75
2022-11-29T08:47:37.568Z,105.18
2022-11-29T08:48:58.690Z,106.13
2022-11-29T08:50:19.752Z,111.40
2022-11-29T08:51:40.723Z,126.63
2022-11-29T08:53:20.322Z,132.50
2022-11-29T08:54:41.409Z,134.10
2022-11-29T08:56:17.062Z,147.68
2022-11-29T08:57:43.914Z,126.47
2022-11-29T08:59:05.781Z,168.18
2022-11-29T09:00:26.820Z,154.57
2022-11-29T09:01:48.088Z,160.60
2022-11-29T09:03:27.957Z,140.90
2022-11-29T09:04:48.873Z,121.63
2022-11-29T09:06:13.000Z,87.97
2022-11-29T09:07:34.395Z,77.57
2022-11-29T09:08:56.534Z,40.20
2022-11-29T09:10:17.528Z,52.38
2022-11-29T09:11:38.980Z,70.70
2022-11-29T09:13:00.249Z,78.45
2022-11-29T09:14:22.869Z,83.38
2022-11-29T09:15:43.974Z,110.55
2022-11-29T09:17:05.060Z,184.93
2022-11-29T09:19:50.225Z,157.38
2022-11-29T09:21:13.597Z,122.30
2022-11-29T09:22:34.377Z,113.55
2022-11-29T09:23:59.324Z,112.82
2022-11-29T09:25:20.463Z,96.40
2022-11-29T09:26:42.290Z,92.75
2022-11-29T09:28:03.580Z,74.95
2022-11-29T09:29:24.545Z,88.63
2022-11-29T09:30:45.847Z,102.40
2022-11-29T09:32:07.134Z,108.90
2022-11-29T09:33:28.379Z,104.10
2022-11-29T09:34:49.177Z,105.85
2022-11-29T09:36:11.647Z,103.97
2022-11-29T09:37:33.269Z,114.10
2022-11-29T09:38:54.516Z,128.75
2022-11-29T09:40:19.772Z,126.72
2022-11-29T09:42:01.145Z,119.35
2022-11-29T09:43:36.930Z,216.82
2022-11-29T09:45:09.584Z,106.82
2022-11-29T09:46:33.533Z,81.97
2022-11-29T09:48:03.642Z,84.55
2022-11-29T09:49:46.262Z,84.97
2022-11-29T09:51:28.139Z,86.20
2022-11-29T09:53:18.714Z,89.40
2022-11-29T09:54:51.884Z,89.68
2022-11-29T09:56:23.972Z,117.57
2022-11-29T09:57:46.116Z,95.20
2022-11-29T09:59:17.214Z,78.20
2022-11-29T10:00:47.338Z,139.13
2022-11-29T10:02:21.810Z,173.57
2022-11-29T10:03:48.762Z,204.43
2022-11-29T10:05:25.197Z,153.07
2022-11-29T10:07:06.713Z,103.80
2022-11-29T10:08:42.059Z,94.72
2022-11-29T10:10:11.269Z,92.03
2022-11-29T10:12:04.258Z,83.93
2022-11-29T10:13:26.617Z,54.90
2022-11-29T10:14:58.419Z,67.22
2022-11-29T10:17:04.440Z,74.80
2022-11-29T10:18:27.059Z,70.22
2022-11-29T10:19:53.086Z,64.50
2022-11-29T10:21:21.088Z,78.18
2022-11-29T10:23:09.471Z,82.97
2022-11-29T10:24:33.058Z,81.97
2022-11-29T10:25:56.633Z,74.53
2022-11-29T10:27:23.961Z,66.25
2022-11-29T10:28:47.737Z,60.40
2022-11-29T10:30:14.602Z,61.53
2022-11-29T10:31:39.271Z,65.70
2022-11-29T10:33:00.989Z,108.03
2022-11-29T10:34:25.533Z,96.30
2022-11-29T10:35:48.528Z,50.70
2022-11-29T10:37:32.765Z,36.28
2022-11-29T10:38:59.685Z,43.05
2022-11-29T10:40:32.306Z,33.50
2022-11-29T10:42:01.461Z,36.47
2022-11-29T10:43:23.992Z,43.28
2022-11-29T10:44:45.132Z,45.72
2022-11-29T10:46:15.572Z,42.28
2022-11-29T10:47:36.947Z,35.05
2022-11-29T10:49:04.925Z,37.22
2022-11-29T10:50:28.598Z,30.25
2022-11-29T10:51:49.709Z,41.55
2022-11-29T10:53:14.943Z,40.78
2022-11-29T10:54:42.549Z,29.80
2022-11-29T10:56:29.354Z,27.95
2022-11-29T10:58:10.569Z,28.33
2022-11-29T10:59:33.201Z,39.22
2022-11-29T11:01:15.525Z,35.97
2022-11-29T11:02:37.555Z,38.40
2022-11-29T11:04:00.613Z,32.03
2022-11-29T11:05:26.602Z,31.38
2022-11-29T11:06:56.955Z,46.63
2022-11-29T11:08:18.324Z,43.30
2022-11-29T11:09:48.717Z,30.15
2022-11-29T11:11:12.304Z,28.35
2022-11-29T11:12:34.719Z,32.65
2022-11-29T11:14:00.298Z,28.90
2022-11-29T11:15:24.109Z,27.83
2022-11-29T11:16:45.341Z,35.67
2022-11-29T11:18:21.210Z,29.15
2022-11-29T11:19:42.515Z,32.75
2022-11-29T11:21:04.762Z,36.45
2022-11-29T11:22:27.102Z,46.75
2022-11-29T11:23:54.640Z,51.17
2022-11-29T11:25:35.232Z,29.35
2022-11-29T11:26:57.135Z,44.95
2022-11-29T11:28:22.328Z,153.57
2022-11-29T11:29:44.613Z,49.20
2022-11-29T11:31:08.795Z,41.22
2022-11-29T11:32:30.142Z,35.53
2022-11-29T11:33:51.429Z,31.17
2022-11-29T11:35:24.380Z,49.67
2022-11-29T11:36:45.501Z,58.67
2022-11-29T11:38:16.076Z,68.80
2022-11-29T11:39:37.631Z,61.95
2022-11-29T11:41:18.259Z,44.88
2022-11-29T11:42:40.623Z,42.20
2022-11-29T11:44:04.517Z,21.00
2022-11-29T11:45:35.463Z,21.00
2022-11-29T11:46:56.840Z,21.45
2022-11-29T11:48:19.260Z,17.38
2022-11-29T11:49:53.565Z,21.02
2022-11-29T11:51:24.528Z,22.75
2022-11-29T11:52:52.480Z,19.92
2022-11-29T11:54:15.431Z,20.40
2022-11-29T11:55:36.390Z,23.27
2022-11-29T11:56:57.645Z,31.08
2022-11-29T11:58:22.878Z,32.20
2022-11-29T11:59:48.865Z,28.63
2022-11-29T12:01:12.702Z,32.45
2022-11-29T12:02:40.387Z,44.38
2022-11-29T12:04:27.454Z,34.60
2022-11-29T12:05:52.800Z,50.47
2022-11-29T12:07:38.750Z,34.90
2022-11-29T12:09:19.475Z,21.67
2022-11-29T12:10:41.319Z,49.58
2022-11-29T12:12:20.388Z,47.10
2022-11-29T12:13:49.075Z,55.63
2022-11-29T12:15:28.738Z,69.53
2022-11-29T12:16:55.915Z,90.80
2022-11-29T12:18:44.516Z,67.80
2022-11-29T12:20:28.612Z,36.30
2022-11-29T12:21:55.895Z,33.35
2022-11-29T12:23:16.811Z,30.17
2022-11-29T12:25:00.016Z,26.15
2022-11-29T12:28:20.072Z,22.30
2022-11-29T12:29:41.534Z,22.67
2022-11-29T12:31:37.018Z,18.15
2022-11-29T12:33:17.827Z,17.42
2022-11-29T12:35:09.125Z,27.17
2022-11-29T12:36:35.866Z,28.17
2022-11-29T12:38:12.470Z,34.85
2022-11-29T12:39:42.456Z,37.35
2022-11-29T12:41:52.435Z,39.38
2022-11-29T12:43:23.891Z,30.33
2022-11-29T12:45:01.823Z,34.08
2022-11-29T12:46:26.294Z,39.17
2022-11-29T12:48:06.086Z,34.30
2022-11-29T12:51:02.158Z,36.22
2022-11-29T12:52:58.131Z,22.52
2022-11-29T12:54:28.225Z,37.15
2022-11-29T12:56:07.752Z,25.15
2022-11-29T12:57:35.307Z,20.40
2022-11-29T12:59:23.767Z,74.70
2022-11-29T13:00:51.456Z,72.57
2022-11-29T13:02:22.255Z,38.58
2022-11-29T13:04:06.565Z,42.90
2022-11-29T13:05:30.482Z,53.33
2022-11-29T13:07:17.387Z,51.10
2022-11-29T13:09:06.082Z,45.08
2022-11-29T13:10:32.690Z,38.97
2022-11-29T13:12:43.338Z,38.25
2022-11-29T13:14:44.372Z,36.00
2022-11-29T13:18:16.956Z,45.70
2022-11-29T13:19:55.532Z,46.22
2022-11-29T13:21:24.346Z,50.00
2022-11-29T13:22:59.981Z,55.05
2022-11-29T13:24:36.067Z,62.95
2022-11-29T13:26:05.870Z,64.53
2022-11-29T13:27:32.739Z,63.13
2022-11-29T13:28:54.526Z,60.17
2022-11-29T13:30:16.322Z,47.08
2022-11-29T13:31:39.161Z,53.33
2022-11-29T13:33:17.659Z,57.97
2022-11-29T13:34:47.441Z,95.35
2022-11-29T13:36:18.964Z,100.35
2022-11-29T13:37:51.983Z,78.00
2022-11-29T13:39:34.265Z,83.35
2022-11-29T13:41:04.802Z,98.25
2022-11-29T13:42:37.235Z,60.65
2022-11-29T13:44:32.462Z,48.97
2022-11-29T13:46:28.998Z,58.90
2022-11-29T13:47:53.367Z,60.17
2022-11-29T13:49:52.918Z,53.50
2022-11-29T13:51:24.258Z,49.03
2022-11-29T13:52:47.300Z,42.22
2022-11-29T13:54:32.858Z,44.17
2022-11-29T13:56:01.470Z,42.95
2022-11-29T13:57:22.386Z,49.90
2022-11-29T13:58:43.371Z,65.95
2022-11-29T14:00:05.452Z,52.08
2022-11-29T14:01:26.878Z,55.38
2022-11-29T14:02:48.157Z,53.03
2022-11-29T14:04:27.589Z,79.47
2022-11-29T14:05:51.054Z,106.55
2022-11-29T14:07:21.175Z,95.60
2022-11-29T14:10:38.577Z,77.80
2022-11-29T14:12:36.792Z,51.88
2022-11-29T14:14:15.820Z,44.78
2022-11-29T14:15:37.363Z,41.50
2022-11-29T14:17:04.297Z,53.28
2022-11-29T14:18:37.220Z,50.65
2022-11-29T14:20:23.107Z,54.78
2022-11-29T14:21:59.067Z,46.40
2022-11-29T14:23:40.538Z,46.97
2022-11-29T14:25:49.133Z,73.68
2022-11-29T14:28:33.049Z,54.03
2022-11-29T14:29:55.240Z,59.65
2022-11-29T14:31:49.678Z,47.63
2022-11-29T14:33:13.995Z,50.10
2022-11-29T14:34:41.793Z,46.28
2022-11-29T14:36:14.870Z,59.45
2022-11-29T14:37:45.222Z,63.90
2022-11-29T14:39:41.185Z,49.22
2022-11-29T14:41:41.215Z,127.05
2022-11-29T14:43:14.283Z,111.72
2022-11-29T14:44:44.922Z,97.00
2022-11-29T14:46:29.002Z,109.15
2022-11-29T14:47:50.846Z,92.93
2022-11-29T14:49:23.801Z,141.07
2022-11-29T14:50:44.773Z,92.95
2022-11-29T14:52:14.854Z,63.50
2022-11-29T14:53:38.048Z,57.50
2022-11-29T14:55:21.177Z,75.22
2022-11-29T14:56:45.135Z,79.35
2022-11-29T14:58:17.230Z,66.53
2022-11-29T14:59:47.281Z,70.13
2022-11-29T15:01:11.002Z,87.32
2022-11-29T15:03:11.185Z,70.13
2022-11-29T15:06:25.124Z,68.75
2022-11-29T15:07:54.606Z,65.50
2022-11-29T15:09:19.648Z,49.10
2022-11-29T15:10:45.018Z,33.13
2022-11-29T15:12:12.649Z,42.03
2022-11-29T15:13:36.399Z,65.75
2022-11-29T15:15:15.995Z,60.95
2022-11-29T15:16:55.122Z,65.22
2022-11-29T15:18:33.442Z,57.35
2022-11-29T15:20:16.168Z,48.30
2022-11-29T15:21:46.780Z,52.50
2022-11-29T15:23:15.655Z,49.42
2022-11-29T15:25:13.997Z,29.65
2022-11-29T15:26:34.970Z,44.35
2022-11-29T15:27:58.501Z,74.68
2022-11-29T15:29:21.445Z,75.35
2022-11-29T15:30:42.700Z,68.82
2022-11-29T15:32:05.989Z,67.57
2022-11-29T15:33:28.444Z,73.45
2022-11-29T15:34:53.373Z,77.95
2022-11-29T15:36:20.546Z,63.00
2022-11-29T15:37:44.662Z,64.40
2022-11-29T15:39:05.892Z,68.18
2022-11-29T15:40:35.644Z,75.97
2022-11-29T15:42:08.386Z,81.45
2022-11-29T15:43:37.808Z,74.28
2022-11-29T15:46:23.808Z,152.00
2022-11-29T15:47:45.440Z,323.13
2022-11-29T15:49:26.503Z,317.65
2022-11-29T15:51:00.832Z,291.75
2022-11-29T15:52:32.189Z,213.32
2022-11-29T15:54:11.640Z,285.17
2022-11-29T15:55:33.777Z,420.52
2022-11-29T15:57:06.882Z,397.15
2022-11-29T15:58:31.394Z,406.83
2022-11-29T15:59:56.909Z,534.42
2022-11-29T16:01:21.187Z,644.55
2022-11-29T16:02:50.706Z,738.53
2022-11-29T16:04:20.210Z,320.30
2022-11-29T16:05:41.113Z,145.25
2022-11-29T16:07:04.570Z,851.08
2022-11-29T16:08:29.492Z,949.63
2022-11-29T16:10:04.154Z,462.13
2022-11-29T16:11:28.887Z,299.90
2022-11-29T16:13:04.036Z,211.95
2022-11-29T16:14:28.094Z,103.22
2022-11-29T16:15:49.487Z,81.28
2022-11-29T16:17:11.337Z,105.25
2022-11-29T16:18:32.585Z,105.25
2022-11-29T16:20:21.146Z,105.30
2022-11-29T16:21:44.369Z,128.88
2022-11-29T16:23:08.220Z,155.30
2022-11-29T16:24:29.676Z,146.13
2022-11-29T16:26:11.954Z,125.40
2022-11-29T16:27:35.308Z,128.90
2022-11-29T16:28:58.007Z,141.55
2022-11-29T16:30:24.728Z,180.55
2022-11-29T16:31:45.819Z,162.35
2022-11-29T16:33:06.933Z,191.35
2022-11-29T16:34:33.027Z,196.73
2022-11-29T16:36:19.165Z,216.00
2022-11-29T16:37:44.989Z,256.00
2022-11-29T16:39:16.168Z,326.50
2022-11-29T16:40:37.155Z,308.90
2022-11-29T16:42:08.508Z,305.25
2022-11-29T16:43:59.594Z,290.63
2022-11-29T16:45:41.053Z,265.52
2022-11-29T16:47:15.898Z,286.98
2022-11-29T16:48:40.511Z,196.73
2022-11-29T16:50:02.378Z,114.68
2022-11-29T16:51:50.297Z,121.47
2022-11-29T16:53:37.481Z,132.43
2022-11-29T16:54:59.309Z,138.80
2022-11-29T16:56:23.308Z,99.93
2022-11-29T16:57:46.025Z,72.35
2022-11-29T16:59:17.223Z,74.78
2022-11-29T17:00:47.713Z,72.65
2022-11-29T17:02:12.838Z,59.88
2022-11-29T17:03:34.605Z,46.55
2022-11-29T17:04:56.656Z,45.88
2022-11-29T17:06:24.135Z,43.58
2022-11-29T17:07:45.447Z,38.50
2022-11-29T17:09:06.546Z,49.28
2022-11-29T17:10:28.973Z,43.85
2022-11-29T17:11:50.014Z,47.58
2022-11-29T17:13:11.857Z,43.45
2022-11-29T17:14:33.454Z,52.30
2022-11-29T17:15:54.789Z,47.88
2022-11-29T17:17:17.706Z,62.00
2022-11-29T17:18:41.030Z,59.83
2022-11-29T17:20:02.216Z,56.30
2022-11-29T17:21:25.987Z,56.10
2022-11-29T17:22:46.969Z,52.97
2022-11-29T17:24:12.921Z,61.28
2022-11-29T17:25:33.845Z,57.92
2022-11-29T17:26:55.564Z,66.25
2022-11-29T17:28:16.578Z,58.38
2022-11-29T17:29:37.747Z,59.15
2022-11-29T17:30:58.786Z,57.97
2022-11-29T17:32:26.289Z,84.65
2022-11-29T17:33:48.358Z,103.07
2022-11-29T17:35:09.459Z,113.68
2022-11-29T17:36:30.745Z,148.45
2022-11-29T17:37:52.469Z,147.60
2022-11-29T17:39:15.581Z,128.57
2022-11-29T17:40:38.629Z,139.07
2022-11-29T17:42:00.160Z,139.10
2022-11-29T17:43:21.293Z,140.40
2022-11-29T17:44:42.303Z,138.25
2022-11-29T17:46:09.042Z,132.82
2022-11-29T17:47:30.260Z,136.93
2022-11-29T17:48:52.308Z,133.20
2022-11-29T17:50:13.113Z,164.27
2022-11-29T17:51:54.012Z,144.95
2022-11-29T17:53:15.621Z,135.38
2022-11-29T17:54:36.934Z,125.50
2022-11-29T17:56:05.858Z,137.57
2022-11-29T17:57:27.298Z,126.55
2022-11-29T17:58:56.290Z,108.65
2022-11-29T18:00:18.246Z,95.63
2022-11-29T18:01:45.027Z,93.18
2022-11-29T18:03:05.961Z,121.97
2022-11-29T18:04:29.629Z,141.95
2022-11-29T18:05:51.524Z,161.40
2022-11-29T18:07:14.915Z,135.40
2022-11-29T18:08:41.323Z,163.48
2022-11-29T18:10:02.373Z,172.00
2022-11-29T18:11:29.999Z,177.88
2022-11-29T18:12:51.030Z,155.43
2022-11-29T18:14:13.821Z,158.63
2022-11-29T18:15:34.948Z,122.68
2022-11-29T18:16:56.532Z,102.10
2022-11-29T18:18:17.530Z,117.55
2022-11-29T18:19:38.779Z,120.28
2022-11-29T18:21:00.915Z,138.40
2022-11-29T18:22:21.987Z,78.25
2022-11-29T18:23:43.547Z,68.38
2022-11-29T18:25:30.552Z,58.53
2022-11-29T18:26:55.373Z,62.83
2022-11-29T18:28:24.240Z,61.70
2022-11-29T18:29:49.681Z,73.65
2022-11-29T18:31:30.113Z,76.45
2022-11-29T18:32:53.770Z,238.82
2022-11-29T18:34:20.796Z,116.15
2022-11-29T18:35:44.375Z,70.35
2022-11-29T18:37:15.319Z,56.22
2022-11-29T18:38:44.912Z,48.03
2022-11-29T18:40:06.999Z,45.30
2022-11-29T18:41:30.559Z,42.95
2022-11-29T18:42:51.565Z,44.92
2022-11-29T18:44:15.614Z,55.15
2022-11-29T18:45:37.837Z,67.05
2022-11-29T18:46:59.351Z,67.53
2022-11-29T18:48:20.266Z,68.75
2022-11-29T18:49:41.557Z,67.97
2022-11-29T18:51:05.202Z,72.22
2022-11-29T18:52:26.580Z,57.38
2022-11-29T18:53:47.710Z,56.08
2022-11-29T18:55:08.625Z,99.30
2022-11-29T18:56:31.647Z,116.15
2022-11-29T18:57:53.981Z,86.28
2022-11-29T18:59:17.458Z,78.13
2022-11-29T19:00:39.274Z,125.65
2022-11-29T19:02:00.089Z,95.20
2022-11-29T19:03:21.392Z,77.53
2022-11-29T19:04:42.477Z,77.13
2022-11-29T19:06:06.834Z,76.07
2022-11-29T19:07:29.399Z,66.60
2022-11-29T19:08:52.170Z,80.47
2022-11-29T19:10:13.124Z,79.03
2022-11-29T19:11:34.992Z,68.40
2022-11-29T19:12:55.920Z,73.65
2022-11-29T19:14:18.089Z,105.45
2022-11-29T19:15:39.110Z,128.68
2022-11-29T19:17:00.232Z,121.10
2022-11-29T19:18:21.707Z,112.10
2022-11-29T19:19:43.241Z,102.22
2022-11-29T19:21:06.050Z,103.45
2022-11-29T19:22:27.105Z,88.57
2022-11-29T19:23:53.501Z,92.57
2022-11-29T19:25:14.877Z,80.30
2022-11-29T19:26:36.250Z,74.85
2022-11-29T19:27:57.209Z,111.78